Aérodrome :
LOGIN :

S'inscrire | Disclaimer

   EN    FR    IT 

 










Légende :    VFR   VFR Marginal   IFR   IFR Intensif   IFR Très Intensif
Visi : 
Plafond : 
>= 8 km
>= 3000ft
5 à 8 km
1000 à 3000 ft
1500m à 5 km
500 à 1000 ft
800 à 1500m
200 à 500 ft
< 800m
< 200 ft
Symboles :   Orages  Brouillard  Fortes neiges  Fortes précipitations  Vent > 20 kt
SIGMETs :   Divers  Orages  Givrage  Turbulence  Onde Orograph.  Cendres Volcan.







- Altitude de l'aérodrome : 2697 ft
- Code IATA : BLJ


DABT - Batna

DERNIER METAR :
  • 222000Z 27020KT 8000 SCT023 FEW026CB SCT200 34/10 Q1022

METARs EXPIRÉS :
  • 221900Z 29008KT 8000 SCT023 FEW026CB SCT200 35/09 Q1021
  • 221800Z 27014KT 8000 SCT023 FEW026CB SCT200 36/10 Q1019

TAF TAF DABT
Valide du 22 à 18h jusqu'au 23 à 18h UTC


221700Z 2218/2318 26015KT 7000 FEW023TCU SCT100
PROB40
TEMPO 2218/2224 25020G30KT 4000 -TSRA SCT023CB
BECMG 2222/2224 18006KT
BECMG 2310/2312 26014KT
Pas de NOTAMs connus pour ce terrain.
1 SIGMET publié pour la FIR Alger (DAAA) :
 
Orages noyés dans la masse
DAAA SIGMET 2 VALID 221730/222100 DAMM
DAAA ALGIERS FIR ISOL EMBD TS OBS WI N3734 E00850 - N3532 E00919 - N3530 E00630 - N3345 E00458 - N3424 E00117 - N3541 E00014 - N3706 E00255 - N3733 E00512 - N3734 E00850 TOP FL360 MOV E NC=



MET'MAP, la Météo Aéronautique d'un coup d'oeil ! - Copyright ORBIFLY Décembre 2007 - Disclaimer

ORBIFLY MET'MAP TEAM :

Programmation & Développement : Alexandra Zaïnal
Conception & Développement : Baudouin d'Aumeries
Co-Programmation & Développement : Marc-Olivier Méhu
Soutien technique & logistique : Manuel Goepfert

Contact : metmap@orbifly.com




SOURCES & CREDITS :

   NOAA